Standale, Michigan
Current Conditions -  °F | °C
As of 4:53 PM on Wednesday 28 Jan 2015 (Local Time) from KGRR Reporting Station
Overcast Overcast  
Wind Chill: 21°   Ceiling: 23000
Heat Index: 31°   Visibility: 10mi
Dew Point:   Wind: 13mph
Humidity: 40%   Direction: 170°S
Pressure: 30.17"   Gusts: NA
Location:  42.9769°N, 85.7689°W
Report Text: KGRR 282153Z 17011KT 10SM SCT120 OVC230 M01/M13 A3017 RMK AO2 SLP230 T10061128
Loading
Personal Weather Stations






























Interactive Weather Map New forecast layout! Learn more

10-Day Weather Forecast

Advertisements
Track Severe Weather on mobile